Time;durP1;ratioP1;P1;durP2;ratioP2;P2;SDS_P1;SDS_P2;PMS_P1;PMS_P2;Temp;Humidity;BMP_temperature;BMP_pressure;BME280_temperature;BME280_humidity;BME280_pressure;Samples;Min_cycle;Max_cycle;Signal;HPM_P1;HPM_P2
2022/06/17 00:00:21;;;;;;;35.33;33.22;;;27.00;45.80;;;;;;5011729;28;20029;-77
2022/06/17 00:02:47;;;;;;;33.30;31.38;;;27.00;45.90;;;;;;5012414;28;20553;-77
2022/06/17 00:05:13;;;;;;;32.20;30.30;;;26.90;45.90;;;;;;4994089;28;20042;-77
2022/06/17 00:07:40;;;;;;;33.75;31.85;;;26.90;46.10;;;;;;5014239;28;20355;-78
2022/06/17 00:10:16;;;;;;;33.85;31.70;;;26.90;46.10;;;;;;4993116;28;20034;-77
2022/06/17 00:12:42;;;;;;;33.05;31.05;;;26.80;46.10;;;;;;4993951;28;20045;-77
2022/06/17 00:15:12;;;;;;;31.83;30.23;;;26.70;46.30;;;;;;4992510;28;20498;-77
2022/06/17 00:17:40;;;;;;;32.63;30.83;;;26.70;46.50;;;;;;4993048;28;20054;-77
2022/06/17 00:20:08;;;;;;;29.73;28.15;;;26.50;46.50;;;;;;5010748;28;20470;-77
2022/06/17 00:22:35;;;;;;;31.20;29.50;;;26.50;46.90;;;;;;5012713;28;20045;-77
2022/06/17 00:25:01;;;;;;;29.70;28.10;;;26.50;46.80;;;;;;4975594;28;20038;-77
2022/06/17 00:27:27;;;;;;;29.35;27.85;;;26.50;46.90;;;;;;4985980;28;20026;-77
2022/06/17 00:29:53;;;;;;;30.88;29.17;;;26.50;47.00;;;;;;4998858;28;20033;-77
2022/06/17 00:32:20;;;;;;;29.83;27.98;;;26.50;47.10;;;;;;5011061;28;20045;-77
2022/06/17 00:34:46;;;;;;;29.73;27.80;;;26.50;47.20;;;;;;5013293;28;20041;-77
2022/06/17 00:37:13;;;;;;;29.92;27.65;;;26.50;47.30;;;;;;5011501;28;20041;-77
2022/06/17 00:39:39;;;;;;;27.95;26.15;;;26.40;47.50;;;;;;4992425;28;20041;-77
2022/06/17 00:42:10;;;;;;;27.13;25.48;;;26.40;47.70;;;;;;4992454;28;20026;-77
2022/06/17 00:44:55;;;;;;;28.73;26.77;;;26.40;47.90;;;;;;4992378;28;20097;-77
2022/06/17 00:48:06;;;;;;;27.80;26.00;;;26.30;48.00;;;;;;4979169;28;20493;-77
2022/06/17 00:50:48;;;;;;;26.73;25.02;;;26.20;48.20;;;;;;4986600;28;20050;-78
2022/06/17 00:53:21;;;;;;;27.02;25.45;;;26.20;48.50;;;;;;5010013;28;20030;-77
2022/06/17 00:55:57;;;;;;;25.25;23.85;;;26.20;48.70;;;;;;5009387;28;20040;-77
2022/06/17 00:58:30;;;;;;;27.38;25.88;;;26.10;48.70;;;;;;4995730;28;20494;-77
2022/06/17 01:00:59;;;;;;;27.63;25.83;;;26.10;49.20;;;;;;4975224;28;20041;-77
2022/06/17 01:03:30;;;;;;;26.95;25.15;;;26.20;49.10;;;;;;4991592;28;20041;-77
2022/06/17 01:06:02;;;;;;;26.42;24.73;;;26.10;48.60;;;;;;4992678;28;20034;-77
2022/06/17 01:11:37;;;;;;;24.60;22.95;;;26.00;48.90;;;;;;5012261;28;20065;-77
2022/06/17 01:14:03;;;;;;;24.60;23.02;;;25.90;49.20;;;;;;5009415;28;20037;-77
2022/06/17 01:16:31;;;;;;;22.30;21.00;;;25.90;49.40;;;;;;5011006;28;20050;-77
2022/06/17 01:18:57;;;;;;;24.17;22.67;;;25.80;49.80;;;;;;4991902;28;20036;-77
2022/06/17 01:21:38;;;;;;;24.92;23.52;;;25.80;50.30;;;;;;4977935;28;20379;-77
2022/06/17 01:24:06;;;;;;;24.48;22.58;;;25.50;50.30;;;;;;4994356;28;20030;-77
2022/06/17 01:26:32;;;;;;;22.98;21.58;;;25.20;51.20;;;;;;4992023;28;20046;-77
2022/06/17 01:28:58;;;;;;;22.80;21.50;;;25.10;51.40;;;;;;5010211;28;20029;-77
2022/06/17 01:31:24;;;;;;;22.50;20.98;;;25.20;51.10;;;;;;5011086;28;20042;-77
2022/06/17 01:33:50;;;;;;;24.13;22.38;;;25.30;50.90;;;;;;4991239;28;20037;-77
2022/06/17 01:36:25;;;;;;;23.25;21.83;;;25.30;50.70;;;;;;4990232;28;20057;-77
2022/06/17 01:38:53;;;;;;;25.23;23.48;;;25.30;50.70;;;;;;4982681;28;20042;-77
2022/06/17 01:41:21;;;;;;;22.13;20.67;;;25.40;50.50;;;;;;4991040;28;20467;-77
2022/06/17 01:43:52;;;;;;;23.38;21.85;;;25.40;50.20;;;;;;5010759;28;20386;-77
2022/06/17 01:46:19;;;;;;;;;;;25.30;50.20;;;;;;4991957;28;20041;-77
2022/06/17 01:48:54;;;;;;;21.30;19.90;;;25.40;50.20;;;;;;4998793;28;19913;-77
2022/06/17 01:51:21;;;;;;;20.88;19.45;;;25.30;51.50;;;;;;5010004;28;20029;-77
2022/06/17 01:53:50;;;;;;;30.40;28.50;;;25.10;51.00;;;;;;4990798;28;20038;-77
2022/06/17 01:56:17;;;;;;;29.42;27.40;;;25.10;50.90;;;;;;4993692;28;20372;-77
2022/06/17 01:59:05;;;;;;;31.63;29.70;;;25.10;50.80;;;;;;4990500;28;20021;-77
2022/06/17 02:01:32;;;;;;;31.00;29.05;;;25.20;50.90;;;;;;4996566;28;20034;-77
2022/06/17 02:04:15;;;;;;;27.73;25.95;;;25.10;51.50;;;;;;5009783;28;20034;-77
2022/06/17 02:06:48;;;;;;;21.30;20.00;;;25.10;52.20;;;;;;4974872;28;20048;-77
2022/06/17 02:09:14;;;;;;;29.33;27.58;;;24.90;52.30;;;;;;4990032;28;20045;-77
2022/06/17 02:11:40;;;;;;;25.77;24.10;;;24.90;51.80;;;;;;4990668;28;20038;-77
2022/06/17 02:14:07;;;;;;;27.42;25.63;;;25.00;51.60;;;;;;5008660;28;20038;-77
2022/06/17 02:16:42;;;;;;;27.35;25.67;;;24.90;51.70;;;;;;4993141;28;20173;-77
2022/06/17 02:19:08;;;;;;;26.33;24.73;;;24.90;51.80;;;;;;4991467;28;20101;-77
2022/06/17 02:21:40;;;;;;;22.92;21.42;;;24.90;52.00;;;;;;5009668;28;20506;-77
2022/06/17 02:24:07;;;;;;;22.15;20.55;;;24.90;52.00;;;;;;4990894;28;20030;-76
2022/06/17 02:26:34;;;;;;;20.48;19.17;;;24.90;51.80;;;;;;4990637;28;20042;-77
2022/06/17 02:29:01;;;;;;;23.20;21.60;;;24.90;51.90;;;;;;4990976;28;20059;-77
2022/06/17 02:31:28;;;;;;;21.27;19.92;;;24.80;52.10;;;;;;4973381;28;20058;-76
2022/06/17 02:33:54;;;;;;;21.38;19.90;;;24.80;52.40;;;;;;4987154;28;20034;-77
2022/06/17 02:36:25;;;;;;;29.60;27.85;;;24.60;52.90;;;;;;5001179;28;20048;-76
2022/06/17 02:38:52;;;;;;;26.52;24.92;;;24.60;52.60;;;;;;4990663;28;20026;-77
2022/06/17 02:41:19;;;;;;;28.27;26.40;;;24.60;52.70;;;;;;4990607;28;20026;-77
2022/06/17 02:43:51;;;;;;;30.15;28.27;;;24.60;52.40;;;;;;5009930;28;20025;-76
2022/06/17 02:46:34;;;;;;;31.10;29.08;;;24.60;52.70;;;;;;4977012;28;20042;-77
2022/06/17 02:49:04;;;;;;;27.10;25.60;;;24.50;52.70;;;;;;4992826;28;20026;-77
2022/06/17 02:51:37;;;;;;;22.42;20.73;;;24.50;53.30;;;;;;4990646;28;20026;-77
2022/06/17 02:54:04;;;;;;;20.58;19.30;;;24.40;53.60;;;;;;4989408;28;20045;-77
2022/06/17 02:56:32;;;;;;;28.45;26.48;;;24.10;54.30;;;;;;4990265;28;20043;-77
2022/06/17 02:59:15;;;;;;;30.73;28.92;;;23.80;55.50;;;;;;5008314;28;20522;-77
2022/06/17 03:01:41;;;;;;;29.83;27.88;;;23.70;55.60;;;;;;5009302;28;20034;-77
2022/06/17 03:04:17;;;;;;;24.77;22.48;;;23.70;55.60;;;;;;4990155;28;20414;-77
2022/06/17 03:06:45;;;;;;;27.40;25.70;;;23.60;55.50;;;;;;4990044;28;20026;-77
2022/06/17 03:09:28;;;;;;;26.38;24.60;;;23.70;55.00;;;;;;4989437;28;20410;-77
2022/06/17 03:12:03;;;;;;;23.88;22.35;;;23.80;54.70;;;;;;5009171;28;20041;-77
2022/06/17 03:14:35;;;;;;;24.50;22.88;;;23.90;54.60;;;;;;5008827;28;20050;-77
2022/06/17 03:17:04;;;;;;;23.20;21.80;;;23.90;54.60;;;;;;5007408;28;20936;-77
2022/06/17 03:19:30;;;;;;;26.58;24.45;;;24.00;54.40;;;;;;5009795;28;20398;-77
2022/06/17 03:21:56;;;;;;;25.48;23.95;;;24.00;54.40;;;;;;4992760;28;20037;-76
2022/06/17 03:24:42;;;;;;;23.52;22.00;;;24.00;54.30;;;;;;5008928;28;20041;-77
2022/06/17 03:27:17;;;;;;;24.30;22.70;;;24.00;54.40;;;;;;4976951;28;20040;-77
2022/06/17 03:29:44;;;;;;;23.75;22.25;;;24.00;54.60;;;;;;5008988;28;20033;-77
2022/06/17 03:32:32;;;;;;;23.92;22.40;;;24.00;54.60;;;;;;5007075;28;20497;-77
2022/06/17 03:34:58;;;;;;;23.33;21.42;;;24.00;54.60;;;;;;5007162;28;20042;-77
2022/06/17 03:37:33;;;;;;;23.02;21.55;;;24.00;54.50;;;;;;5010293;28;20053;-76
2022/06/17 03:40:23;;;;;;;22.63;21.08;;;24.00;54.80;;;;;;4988899;28;20193;-77
2022/06/17 03:43:06;;;;;;;22.30;20.83;;;24.00;54.60;;;;;;4972944;28;20394;-77
2022/06/17 03:45:43;;;;;;;22.55;20.85;;;23.90;54.70;;;;;;4981457;28;20038;-77
2022/06/17 03:48:34;;;;;;;21.95;20.58;;;23.90;55.10;;;;;;4999113;28;21954;-76
2022/06/17 03:51:00;;;;;;;22.73;21.33;;;23.80;55.20;;;;;;4989724;28;20028;-77
2022/06/17 03:53:34;;;;;;;21.92;20.35;;;23.80;54.80;;;;;;4989659;28;20031;-77
2022/06/17 03:56:11;;;;;;;22.63;21.13;;;23.80;54.80;;;;;;5007674;28;20491;-76
2022/06/17 03:58:37;;;;;;;20.83;19.42;;;23.70;54.90;;;;;;4992075;28;20426;-77
2022/06/17 04:01:26;;;;;;;21.38;19.88;;;23.80;55.00;;;;;;4991957;28;20041;-77
2022/06/17 04:03:56;;;;;;;19.95;18.35;;;23.80;55.50;;;;;;4989406;28;20037;-77
2022/06/17 04:06:29;;;;;;;20.87;19.63;;;23.50;56.40;;;;;;4976084;28;20487;-77
2022/06/17 04:09:05;;;;;;;20.63;19.13;;;23.10;57.90;;;;;;4985921;28;20107;-77
2022/06/17 04:11:35;;;;;;;20.08;18.63;;;23.10;57.20;;;;;;4992851;28;20038;-77
2022/06/17 04:14:06;;;;;;;19.60;18.35;;;23.20;56.90;;;;;;5010773;28;20049;-77
2022/06/17 04:17:05;;;;;;;18.63;17.40;;;23.30;56.60;;;;;;5011990;28;20042;-77
2022/06/17 04:19:31;;;;;;;18.67;17.48;;;23.40;56.10;;;;;;4993911;28;20502;-77
2022/06/17 04:22:15;;;;;;;18.10;16.48;;;23.40;56.20;;;;;;4979175;28;20033;-77
2022/06/17 04:24:41;;;;;;;17.88;16.55;;;23.40;56.20;;;;;;4996659;28;20029;-77
2022/06/17 04:27:07;;;;;;;16.80;15.65;;;23.50;56.50;;;;;;5011343;28;20510;-77
2022/06/17 04:29:34;;;;;;;16.88;15.50;;;23.40;56.70;;;;;;4992628;28;20038;-77
2022/06/17 04:32:14;;;;;;;17.10;15.90;;;23.20;57.00;;;;;;5009571;28;20398;-77
2022/06/17 04:34:40;;;;;;;16.80;15.38;;;23.20;57.00;;;;;;5012418;28;20455;-77
2022/06/17 04:37:12;;;;;;;17.63;16.20;;;23.20;57.00;;;;;;4992424;28;20065;-77
2022/06/17 04:39:49;;;;;;;17.55;16.25;;;23.30;56.60;;;;;;4975745;28;20046;-77
2022/06/17 04:42:41;;;;;;;17.45;16.35;;;23.40;56.30;;;;;;4984205;28;20034;-77
2022/06/17 04:45:20;;;;;;;17.48;16.35;;;23.40;56.40;;;;;;5001067;28;20030;-76
2022/06/17 04:47:46;;;;;;;17.92;16.52;;;23.40;56.40;;;;;;4992676;28;20029;-77
2022/06/17 04:50:14;;;;;;;18.70;16.92;;;23.40;56.50;;;;;;5010292;28;20022;-77
2022/06/17 04:52:45;;;;;;;16.50;15.50;;;23.50;56.80;;;;;;4995886;28;20032;-76
2022/06/17 04:55:14;;;;;;;;;;;23.50;57.00;;;;;;4978595;28;20045;-76
2022/06/17 04:57:40;;;;;;;17.10;15.70;;;23.10;57.60;;;;;;4994923;28;20272;-77
2022/06/17 05:00:07;;;;;;;17.17;16.05;;;22.90;58.70;;;;;;4991598;28;20037;-76
2022/06/17 05:02:33;;;;;;;17.90;16.58;;;22.90;58.90;;;;;;5011162;28;20026;-76
2022/06/17 05:05:05;;;;;;;19.20;17.88;;;23.10;58.40;;;;;;4993872;28;20479;-76
2022/06/17 05:07:33;;;;;;;18.77;17.40;;;23.30;57.90;;;;;;5010267;28;20057;-77
2022/06/17 05:10:05;;;;;;;18.08;16.67;;;23.40;57.50;;;;;;4991524;28;20493;-77
2022/06/17 05:12:46;;;;;;;19.92;18.42;;;23.50;56.80;;;;;;4992271;28;20422;-76
2022/06/17 05:15:20;;;;;;;20.20;18.80;;;23.50;56.10;;;;;;4991874;28;20049;-77
2022/06/17 05:17:46;;;;;;;22.02;20.17;;;23.30;55.90;;;;;;4991310;28;20045;-76
2022/06/17 05:20:17;;;;;;;23.35;21.70;;;23.40;56.10;;;;;;5008610;28;20030;-77
2022/06/17 05:22:59;;;;;;;23.55;22.15;;;23.60;55.50;;;;;;4991096;28;20032;-77
2022/06/17 05:25:27;;;;;;;22.40;21.02;;;23.80;55.00;;;;;;4994721;28;20025;-77
2022/06/17 05:27:53;;;;;;;21.63;20.00;;;23.70;54.90;;;;;;4991702;28;20378;-77
2022/06/17 05:30:20;;;;;;;23.20;21.55;;;23.80;54.60;;;;;;5010178;28;20030;-77
2022/06/17 05:32:53;;;;;;;23.92;22.33;;;23.60;55.00;;;;;;4991627;28;20057;-77
2022/06/17 05:35:20;;;;;;;22.63;21.33;;;23.40;55.70;;;;;;4992556;28;20041;-76
2022/06/17 05:37:46;;;;;;;22.17;20.85;;;23.30;55.60;;;;;;5011002;28;20502;-77
2022/06/17 05:40:12;;;;;;;23.15;21.45;;;23.30;55.60;;;;;;5008612;28;20030;-77
2022/06/17 05:42:39;;;;;;;21.00;19.45;;;23.40;55.30;;;;;;4974078;28;20050;-77
2022/06/17 05:45:06;;;;;;;19.30;18.10;;;23.50;55.00;;;;;;5000818;28;20033;-76
2022/06/17 05:47:32;;;;;;;18.73;17.52;;;23.50;54.80;;;;;;5010244;28;20034;-77
2022/06/17 05:49:58;;;;;;;21.40;19.80;;;23.40;54.60;;;;;;5009623;28;20042;-77
2022/06/17 05:52:24;;;;;;;20.92;19.60;;;23.40;55.00;;;;;;5011371;28;20034;-77
2022/06/17 05:54:52;;;;;;;20.90;18.95;;;23.60;54.80;;;;;;5010078;28;20378;-77
2022/06/17 05:57:20;;;;;;;19.90;18.52;;;23.80;54.10;;;;;;4990713;28;20061;-77
2022/06/17 05:59:46;;;;;;;18.95;17.70;;;23.80;53.70;;;;;;5008570;28;20022;-77
2022/06/17 06:02:12;;;;;;;18.42;17.13;;;23.70;53.80;;;;;;4991623;28;20048;-77
2022/06/17 06:04:38;;;;;;;21.02;19.42;;;23.70;54.00;;;;;;5011843;28;20040;-77
2022/06/17 06:07:04;;;;;;;20.90;19.48;;;23.80;53.40;;;;;;5008933;28;20049;-77
2022/06/17 06:09:30;;;;;;;25.33;23.45;;;24.00;53.30;;;;;;4990528;28;20041;-76
2022/06/17 06:11:56;;;;;;;24.67;23.02;;;24.20;52.90;;;;;;4990722;28;20056;-76
2022/06/17 06:14:22;;;;;;;23.42;21.92;;;24.30;52.50;;;;;;4990860;28;20041;-77
2022/06/17 06:16:49;;;;;;;27.10;25.40;;;24.30;52.50;;;;;;5010773;28;20046;-76
2022/06/17 06:19:15;;;;;;;26.33;24.42;;;24.50;51.90;;;;;;4990870;28;20038;-77
2022/06/17 06:21:41;;;;;;;26.70;25.10;;;24.60;52.20;;;;;;5005055;28;20048;-77
2022/06/17 06:24:07;;;;;;;27.13;25.42;;;24.60;51.30;;;;;;4990572;28;20034;-76
2022/06/17 06:26:33;;;;;;;26.00;24.02;;;24.60;51.70;;;;;;4990684;28;20042;-77
2022/06/17 06:28:59;;;;;;;26.95;25.15;;;24.80;50.80;;;;;;5010181;28;20030;-78
2022/06/17 06:31:25;;;;;;;26.88;25.02;;;24.90;51.00;;;;;;5004597;28;20045;-77
2022/06/17 06:33:52;;;;;;;27.60;25.80;;;25.20;50.70;;;;;;5006752;28;20026;-77
2022/06/17 06:36:18;;;;;;;28.75;26.92;;;25.30;50.70;;;;;;4990019;28;20402;-77
2022/06/17 06:38:44;;;;;;;29.20;27.15;;;25.50;50.50;;;;;;4990516;28;20021;-77
2022/06/17 06:41:10;;;;;;;31.27;29.00;;;25.60;49.90;;;;;;4991884;28;20046;-77
2022/06/17 06:43:36;;;;;;;26.80;25.25;;;25.70;50.00;;;;;;5010131;28;20041;-77
2022/06/17 06:46:10;;;;;;;28.48;26.67;;;25.80;50.00;;;;;;4989615;28;20046;-77
2022/06/17 06:48:37;;;;;;;28.98;27.27;;;25.70;50.40;;;;;;4990389;28;20022;-77
2022/06/17 06:51:03;;;;;;;28.40;26.63;;;25.80;50.50;;;;;;4974728;28;20049;-77
2022/06/17 06:53:29;;;;;;;29.00;27.30;;;25.90;49.70;;;;;;5008197;28;20525;-77
2022/06/17 06:55:55;;;;;;;32.35;30.42;;;26.00;49.90;;;;;;5009861;28;20034;-77
2022/06/17 06:58:23;;;;;;;30.58;28.48;;;26.00;49.40;;;;;;4991482;28;20041;-77
2022/06/17 07:00:51;;;;;;;30.08;28.23;;;26.10;49.50;;;;;;5007885;28;20049;-77
2022/06/17 07:03:18;;;;;;;30.23;28.42;;;26.30;49.40;;;;;;5009214;28;20019;-77
2022/06/17 07:05:49;;;;;;;30.52;28.73;;;26.30;49.50;;;;;;4989552;28;20034;-77
2022/06/17 07:08:17;;;;;;;32.33;30.48;;;26.30;49.40;;;;;;4992373;28;20552;-77
2022/06/17 07:10:43;;;;;;;33.10;31.30;;;26.50;49.20;;;;;;5011002;28;20030;-77
2022/06/17 07:13:10;;;;;;;30.88;29.13;;;26.70;49.60;;;;;;5007738;28;20045;-77
2022/06/17 07:15:37;;;;;;;30.90;29.10;;;26.80;48.60;;;;;;4989505;28;20038;-77
2022/06/17 07:18:15;;;;;;;31.38;29.35;;;27.10;48.20;;;;;;5007374;28;20057;-77
2022/06/17 07:20:47;;;;;;;33.70;31.40;;;27.20;47.90;;;;;;5008168;28;20397;-76
2022/06/17 07:23:18;;;;;;;33.30;31.02;;;27.30;48.00;;;;;;5007773;28;20051;-77
2022/06/17 07:25:44;;;;;;;34.05;31.92;;;27.30;47.60;;;;;;5005685;28;20033;-77
2022/06/17 07:28:14;;;;;;;34.25;32.05;;;27.50;47.80;;;;;;5008767;28;20057;-77
2022/06/17 07:30:45;;;;;;;33.47;31.23;;;27.60;47.30;;;;;;4989487;28;20390;-77
2022/06/17 07:33:12;;;;;;;33.78;31.75;;;27.60;46.80;;;;;;4990394;28;20489;-77
2022/06/17 07:35:40;;;;;;;35.45;33.50;;;27.70;47.20;;;;;;4989734;28;20034;-77
2022/06/17 07:40:55;;;;;;;36.70;33.88;;;27.80;46.90;;;;;;5000688;28;20041;-77
2022/06/17 07:43:22;;;;;;;36.63;34.08;;;27.90;46.50;;;;;;5008916;28;20050;-77
2022/06/17 07:45:48;;;;;;;35.70;33.67;;;27.90;46.60;;;;;;5007538;28;20049;-77
2022/06/17 07:48:14;;;;;;;37.35;34.90;;;28.10;46.20;;;;;;4993186;28;20033;-78
2022/06/17 07:50:41;;;;;;;35.35;33.00;;;28.20;45.80;;;;;;4993369;28;20030;-78
2022/06/17 07:53:08;;;;;;;36.00;34.00;;;28.40;45.90;;;;;;5011176;28;20040;-78
2022/06/17 07:55:34;;;;;;;35.40;32.70;;;28.50;45.60;;;;;;5013054;28;20037;-77
2022/06/17 07:58:00;;;;;;;35.30;33.30;;;28.60;45.20;;;;;;4993300;28;20038;-77
2022/06/17 08:00:29;;;;;;;36.05;33.15;;;28.80;45.90;;;;;;4992875;28;20042;-77
2022/06/17 08:02:55;;;;;;;37.15;35.00;;;29.00;45.00;;;;;;4993061;28;20021;-77
2022/06/17 08:05:22;;;;;;;38.55;36.35;;;29.00;44.60;;;;;;4993085;28;20033;-77
2022/06/17 08:07:49;;;;;;;37.95;35.88;;;29.10;44.10;;;;;;5012758;28;20034;-77
2022/06/17 08:10:16;;;;;;;45.53;42.53;;;29.30;45.40;;;;;;5010341;28;20037;-77
2022/06/17 08:12:42;;;;;;;41.92;39.33;;;29.60;45.00;;;;;;4989825;28;20046;-77
2022/06/17 08:15:08;;;;;;;42.20;39.70;;;29.80;43.40;;;;;;4990382;28;20509;-78
2022/06/17 08:17:34;;;;;;;45.50;42.92;;;29.90;42.80;;;;;;4989304;28;20481;-78
2022/06/17 08:20:01;;;;;;;44.40;41.97;;;29.80;43.20;;;;;;4992788;28;20025;-78
2022/06/17 08:22:27;;;;;;;43.75;40.90;;;30.00;42.50;;;;;;4992948;28;20450;-77
2022/06/17 08:24:55;;;;;;;47.20;44.03;;;30.00;42.80;;;;;;4989533;28;20035;-77
2022/06/17 08:27:22;;;;;;;1999.90;999.90;;;30.20;43.00;;;;;;4973361;28;20046;-78
2022/06/17 08:29:48;;;;;;;1999.90;999.90;;;30.30;42.60;;;;;;4973299;28;20497;-78
2022/06/17 08:34:59;;;;;;;1999.90;999.90;;;30.70;41.50;;;;;;4991421;28;20034;-78
2022/06/17 08:37:25;;;;;;;1999.90;999.90;;;30.80;41.60;;;;;;4990326;28;20475;-78
2022/06/17 08:39:51;;;;;;;1999.90;999.90;;;30.70;41.20;;;;;;4975555;28;20049;-77
2022/06/17 08:42:38;;;;;;;1999.90;999.90;;;30.80;41.50;;;;;;4992031;28;20041;-77
2022/06/17 08:45:07;;;;;;;1511.75;761.03;;;30.60;41.40;;;;;;4989342;28;20038;-77
2022/06/17 08:47:46;;;;;;;535.25;283.45;;;30.80;41.60;;;;;;4989895;28;20038;-78
2022/06/17 08:50:22;;;;;;;1022.65;521.35;;;30.90;40.80;;;;;;4990650;28;20022;-78
2022/06/17 08:53:16;;;;;;;47.30;44.60;;;31.00;40.60;;;;;;4987715;28;20045;-78
2022/06/17 08:56:05;;;;;;;39.67;37.33;;;31.10;40.50;;;;;;4991959;28;20038;-78
2022/06/17 08:58:46;;;;;;;46.75;44.25;;;31.20;40.10;;;;;;4976959;28;20058;-78
2022/06/17 09:01:22;;;;;;;36.80;34.42;;;31.40;40.50;;;;;;4990913;28;20035;-77
2022/06/17 09:04:17;;;;;;;40.08;37.88;;;31.50;39.60;;;;;;4988942;28;20026;-78
2022/06/17 09:06:49;;;;;;;34.83;32.95;;;31.60;39.20;;;;;;4988855;28;20034;-78
2022/06/17 09:09:33;;;;;;;1999.90;999.90;;;31.70;39.00;;;;;;4988239;28;20046;-78
2022/06/17 09:12:40;;;;;;;36.80;34.80;;;31.90;38.50;;;;;;4992133;28;20034;-78
2022/06/17 09:15:22;;;;;;;1017.42;516.38;;;31.90;38.70;;;;;;4967362;28;20495;-77
2022/06/17 09:17:59;;;;;;;1999.90;999.90;;;32.00;37.80;;;;;;4936116;28;20057;-78
2022/06/17 09:20:32;;;;;;;1999.90;999.90;;;32.20;37.50;;;;;;4956929;28;20047;-78
2022/06/17 09:23:01;;;;;;;1999.90;999.90;;;32.30;38.00;;;;;;4954925;28;20042;-78
2022/06/17 09:25:35;;;;;;;1999.90;999.90;;;32.50;37.00;;;;;;4973017;28;20042;-78
2022/06/17 09:28:01;;;;;;;1999.90;999.90;;;32.70;36.50;;;;;;4952643;28;20389;-78
2022/06/17 09:30:31;;;;;;;1999.90;999.90;;;32.70;36.00;;;;;;4950621;28;20039;-77
2022/06/17 09:33:23;;;;;;;1999.90;999.90;;;32.70;35.20;;;;;;4936008;28;20042;-78
2022/06/17 09:36:14;;;;;;;1999.90;999.90;;;32.80;35.60;;;;;;4953211;28;20038;-78
2022/06/17 09:38:54;;;;;;;1999.90;999.90;;;32.80;35.30;;;;;;4963013;28;20059;-79
2022/06/17 09:41:25;;;;;;;1999.90;999.90;;;32.80;35.50;;;;;;4938185;28;20058;-78
2022/06/17 09:43:56;;;;;;;;;;;32.80;35.10;;;;;;4954813;28;20365;-78
2022/06/17 09:46:42;;;;;;;1999.90;999.90;;;33.00;35.70;;;;;;4953312;28;20334;-78
2022/06/17 09:49:26;;;;;;;1999.90;999.90;;;32.80;35.80;;;;;;4937470;28;20038;-77
2022/06/17 09:51:55;;;;;;;1999.90;999.90;;;33.00;36.20;;;;;;4957152;28;20042;-78
2022/06/17 09:54:38;;;;;;;1999.90;999.90;;;33.20;35.30;;;;;;5000386;28;20026;-77
2022/06/17 09:57:15;;;;;;;1999.90;999.90;;;33.30;34.80;;;;;;4990781;28;20443;-78
2022/06/17 09:59:46;;;;;;;1999.90;999.90;;;33.40;35.10;;;;;;4990730;28;20022;-78
2022/06/17 10:02:34;;;;;;;1999.90;999.90;;;33.40;34.30;;;;;;5008287;28;20494;-77
2022/06/17 10:05:00;;;;;;;1999.90;999.90;;;33.40;34.10;;;;;;5007390;28;20386;-78
2022/06/17 10:07:43;;;;;;;1999.90;999.90;;;33.30;34.10;;;;;;5010454;28;20378;-77
2022/06/17 10:10:29;;;;;;;1999.90;999.90;;;33.30;33.70;;;;;;4992152;28;20034;-78
2022/06/17 10:13:35;;;;;;;1999.90;999.90;;;33.30;33.20;;;;;;4991295;28;20057;-77
2022/06/17 10:19:53;;;;;;;1999.90;999.90;;;33.60;33.30;;;;;;4960099;28;20055;-78
2022/06/17 10:22:42;;;;;;;1999.90;999.90;;;33.70;33.20;;;;;;4966602;28;20531;-77
2022/06/17 10:25:46;;;;;;;1999.90;999.90;;;33.60;33.30;;;;;;4951434;28;20035;-77
2022/06/17 10:28:31;;;;;;;1999.90;999.90;;;33.40;32.80;;;;;;4966911;28;20050;-78
2022/06/17 10:30:59;;;;;;;1999.90;999.90;;;33.70;33.20;;;;;;4953982;28;20090;-78
2022/06/17 10:33:25;;;;;;;1999.90;999.90;;;33.80;32.40;;;;;;4951456;28;20043;-78
2022/06/17 10:35:51;;;;;;;1999.90;999.90;;;33.70;32.50;;;;;;4951712;28;20078;-78
2022/06/17 10:38:21;;;;;;;1999.90;999.90;;;33.90;32.20;;;;;;4951538;28;20443;-78
2022/06/17 10:40:47;;;;;;;1999.90;999.90;;;34.00;31.90;;;;;;4978559;28;20217;-78
2022/06/17 10:43:16;;;;;;;1999.90;999.90;;;33.90;31.20;;;;;;4951196;28;20047;-78
2022/06/17 10:45:42;;;;;;;1999.90;999.90;;;33.80;32.30;;;;;;4951024;28;20035;-78
2022/06/17 10:48:45;;;;;;;1999.90;999.90;;;33.80;31.80;;;;;;4952235;28;20070;-78
2022/06/17 10:51:11;;;;;;;1999.90;999.90;;;34.00;30.80;;;;;;4969616;28;20066;-77
2022/06/17 10:53:57;;;;;;;1999.90;999.90;;;34.00;30.60;;;;;;4998114;28;20042;-79
2022/06/17 10:56:34;;;;;;;1999.90;999.90;;;34.10;30.50;;;;;;5010145;28;20030;-78
2022/06/17 10:59:03;;;;;;;1999.90;999.90;;;33.90;30.50;;;;;;5026233;28;20048;-78
2022/06/17 11:01:52;;;;;;;1999.90;999.90;;;34.00;30.90;;;;;;5006668;28;20034;-78
2022/06/17 11:04:19;;;;;;;1999.90;999.90;;;34.10;30.90;;;;;;5027103;28;20040;-78
2022/06/17 11:06:55;;;;;;;1999.90;999.90;;;34.10;29.70;;;;;;5024494;28;20038;-78
2022/06/17 11:09:27;;;;;;;1999.90;999.90;;;34.10;29.60;;;;;;5002619;28;20030;-77
2022/06/17 11:12:03;;;;;;;1999.90;999.90;;;34.20;29.40;;;;;;5000458;28;20034;-79
2022/06/17 11:14:55;;;;;;;1999.90;999.90;;;34.40;29.10;;;;;;5005610;28;20030;-78
2022/06/17 11:17:42;;;;;;;1999.90;999.90;;;34.50;28.90;;;;;;5009923;28;20038;-77
2022/06/17 11:20:20;;;;;;;1999.90;999.90;;;34.60;29.00;;;;;;5009059;28;20052;-78
2022/06/17 11:22:57;;;;;;;1999.90;999.90;;;34.50;28.80;;;;;;5025259;28;20032;-78
2022/06/17 11:25:32;;;;;;;1999.90;999.90;;;34.40;28.50;;;;;;5010769;28;20521;-78
2022/06/17 11:28:11;;;;;;;1999.90;999.90;;;34.40;28.40;;;;;;5012120;28;20466;-78
2022/06/17 11:30:48;;;;;;;1999.90;999.90;;;34.60;28.50;;;;;;5011547;28;20367;-78
2022/06/17 11:33:22;;;;;;;1999.90;999.90;;;34.70;28.10;;;;;;4996231;28;20030;-79
2022/06/17 11:35:50;;;;;;;1999.90;999.90;;;34.70;28.20;;;;;;4995622;28;20053;-78
2022/06/17 11:38:16;;;;;;;1999.90;999.90;;;34.90;27.80;;;;;;4996497;28;20037;-78
2022/06/17 11:40:50;;;;;;;1999.90;999.90;;;35.00;28.20;;;;;;5009930;28;20026;-78
2022/06/17 11:43:32;;;;;;;1999.90;999.90;;;35.00;27.50;;;;;;5014515;28;20038;-78
2022/06/17 11:46:08;;;;;;;1999.90;999.90;;;35.10;27.20;;;;;;4976730;28;20045;-78
2022/06/17 11:48:40;;;;;;;1999.90;999.90;;;35.30;26.50;;;;;;4988266;28;20030;-78
2022/06/17 11:51:10;;;;;;;1999.90;999.90;;;35.50;27.20;;;;;;4987229;28;20403;-78
2022/06/17 11:53:45;;;;;;;1999.90;999.90;;;35.50;26.10;;;;;;4993482;28;20394;-78
2022/06/17 11:56:11;;;;;;;1999.90;999.90;;;35.30;26.10;;;;;;5011026;28;20092;-78
2022/06/17 11:58:59;;;;;;;1999.90;999.90;;;35.10;27.00;;;;;;4997032;28;20368;-78
2022/06/17 12:01:25;;;;;;;1999.90;999.90;;;35.40;27.20;;;;;;5013712;28;20037;-78
2022/06/17 12:03:51;;;;;;;1999.90;999.90;;;35.50;26.30;;;;;;4993221;28;20030;-79
2022/06/17 12:06:27;;;;;;;1999.90;999.90;;;35.60;26.30;;;;;;4993243;28;20034;-78
2022/06/17 12:09:22;;;;;;;1999.90;999.90;;;35.70;25.80;;;;;;4979080;28;20041;-78
2022/06/17 12:11:58;;;;;;;1999.90;999.90;;;35.60;25.00;;;;;;5007992;28;20378;-78
2022/06/17 12:14:39;;;;;;;1999.90;999.90;;;35.50;23.80;;;;;;4994632;28;20030;-78
2022/06/17 12:17:11;;;;;;;1999.90;999.90;;;35.40;24.70;;;;;;5010249;28;20045;-78
2022/06/17 12:19:37;;;;;;;1999.90;999.90;;;35.50;25.80;;;;;;4995233;28;20025;-78
2022/06/17 12:22:34;;;;;;;1999.90;999.90;;;35.60;25.80;;;;;;4995561;28;20037;-78
2022/06/17 12:25:04;;;;;;;1999.90;999.90;;;35.60;25.90;;;;;;5006424;28;20119;-78
2022/06/17 12:27:47;;;;;;;1999.90;999.90;;;35.80;24.90;;;;;;5011811;28;20041;-77
2022/06/17 12:30:28;;;;;;;1999.90;999.90;;;36.00;25.40;;;;;;4992343;28;20030;-78
2022/06/17 12:33:00;;;;;;;1999.90;999.90;;;36.30;25.20;;;;;;4988965;28;20034;-78
2022/06/17 12:35:48;;;;;;;1999.90;999.90;;;36.00;24.20;;;;;;5010446;28;20129;-78
2022/06/17 12:38:36;;;;;;;1999.90;999.90;;;35.90;24.10;;;;;;4993951;28;20038;-77
2022/06/17 12:41:20;;;;;;;1999.90;999.90;;;36.00;23.40;;;;;;5008115;28;20210;-77
2022/06/17 12:43:54;;;;;;;1999.90;999.90;;;35.90;23.80;;;;;;5012234;28;20030;-78
2022/06/17 12:46:29;;;;;;;1999.90;999.90;;;36.00;24.10;;;;;;5010639;28;20482;-78
2022/06/17 12:55:01;;;;;;;1999.90;999.90;;;35.90;25.40;;;;;;4996243;28;20041;-78
2022/06/17 12:57:54;;;;;;;1999.90;999.90;;;35.70;25.60;;;;;;5010014;28;20045;-77
2022/06/17 13:00:26;;;;;;;1999.90;999.90;;;35.70;24.90;;;;;;4974473;28;20038;-78
2022/06/17 13:02:58;;;;;;;1999.90;999.90;;;35.80;24.50;;;;;;4980371;28;20034;-78